Little Washington, Ohio
Current Conditions -  °F | °C
As of 6:52 AM on Thursday 18 Dec 2014 (Local Time) from KMFD Reporting Station
Overcast Overcast  
Wind Chill: 19°   Ceiling: 2300
Heat Index: 26°   Visibility: 10mi
Dew Point: 21°   Wind: 6mph
Humidity: 81%   Direction: 250°WSW
Pressure: 30.19"   Gusts: NA
Location:  40.7789°N, 82.5216°W
Report Text: KMFD 181152Z 25005KT 10SM OVC023 M03/M06 A3019 RMK AO2 SLP238 T10331061 11033 21033 58003
Loading
Personal Weather Stations






























Interactive Weather Map New forecast layout! Learn more

10-Day Weather Forecast

Advertisements
Track Severe Weather on mobile